Time;durP1;ratioP1;P1;durP2;ratioP2;P2;SDS_P1;SDS_P2;PMS_P1;PMS_P2;Temp;Humidity;BMP_temperature;BMP_pressure;BME280_temperature;BME280_humidity;BME280_pressure;Samples;Min_cycle;Max_cycle;Signal;HPM_P1;HPM_P2
2021/09/21 00:01:41;;;;;;;5.97;3.78;;;12.70;76.70;;;;;;4895149;29;20044;-78
2021/09/21 00:04:06;;;;;;;5.90;3.95;;;12.70;76.70;;;;;;4877515;29;20040;-79
2021/09/21 00:06:33;;;;;;;3.80;2.80;;;12.70;76.80;;;;;;4861418;29;20037;-79
2021/09/21 00:08:58;;;;;;;7.93;2.90;;;12.80;77.00;;;;;;4877585;29;20386;-79
2021/09/21 00:11:24;;;;;;;3.92;2.20;;;12.80;77.00;;;;;;4873851;29;20096;-79
2021/09/21 00:13:50;;;;;;;4.32;2.13;;;12.80;76.90;;;;;;4895397;29;20473;-79
2021/09/21 00:16:15;;;;;;;3.60;2.08;;;12.80;77.00;;;;;;4878955;29;20031;-79
2021/09/21 00:18:41;;;;;;;3.63;2.33;;;12.80;77.10;;;;;;4873960;29;20028;-79
2021/09/21 00:21:08;;;;;;;5.13;2.78;;;12.80;77.10;;;;;;4852377;29;20080;-79
2021/09/21 00:23:34;;;;;;;4.22;2.83;;;12.80;77.20;;;;;;4876471;29;20458;-79
2021/09/21 00:25:59;;;;;;;4.82;3.20;;;12.80;77.30;;;;;;4877410;29;20028;-78
2021/09/21 00:28:26;;;;;;;3.85;3.35;;;12.80;77.30;;;;;;4859604;29;20578;-78
2021/09/21 00:30:52;;;;;;;5.03;3.45;;;12.70;77.50;;;;;;4878772;29;20462;-77
2021/09/21 00:33:22;;;;;;;5.30;4.15;;;12.70;77.70;;;;;;4883470;29;20179;-79
2021/09/21 00:35:52;;;;;;;5.50;3.90;;;12.70;77.70;;;;;;4862824;29;20040;-79
2021/09/21 00:38:21;;;;;;;7.45;4.85;;;12.70;77.90;;;;;;4892868;29;20033;-79
2021/09/21 00:40:49;;;;;;;5.85;4.70;;;12.70;78.00;;;;;;4878060;29;20533;-79
2021/09/21 00:43:23;;;;;;;6.65;3.92;;;12.70;78.10;;;;;;4896812;29;20469;-79
2021/09/21 00:45:52;;;;;;;6.10;3.58;;;12.60;78.30;;;;;;4877127;29;20025;-79
2021/09/21 00:48:20;;;;;;;4.43;3.20;;;12.60;78.30;;;;;;4879903;29;20048;-78
2021/09/21 00:50:46;;;;;;;5.38;3.03;;;12.60;78.50;;;;;;4876558;29;20035;-79
2021/09/21 00:53:12;;;;;;;3.30;2.67;;;12.60;78.60;;;;;;4860052;29;20129;-79
2021/09/21 00:55:37;;;;;;;4.60;3.00;;;12.60;78.80;;;;;;4877626;29;20033;-79
2021/09/21 00:58:03;;;;;;;5.90;2.83;;;12.60;78.80;;;;;;4881246;29;20123;-79
2021/09/21 01:00:29;;;;;;;5.70;2.58;;;12.60;78.90;;;;;;4880829;29;20053;-79
2021/09/21 01:02:54;;;;;;;4.68;2.70;;;12.50;79.00;;;;;;4882391;29;20048;-79
2021/09/21 01:05:21;;;;;;;4.00;2.88;;;12.40;79.20;;;;;;4862339;29;20077;-79
2021/09/21 01:07:47;;;;;;;3.65;2.70;;;12.50;79.60;;;;;;4874447;29;20121;-79
2021/09/21 01:10:16;;;;;;;5.20;2.88;;;12.50;79.90;;;;;;4865044;29;20065;-79
2021/09/21 01:12:42;;;;;;;3.92;2.92;;;12.50;79.80;;;;;;4881294;29;20032;-78
2021/09/21 01:15:10;;;;;;;4.13;3.60;;;12.50;79.90;;;;;;4881045;29;20504;-78
2021/09/21 01:17:36;;;;;;;6.20;4.38;;;12.50;79.90;;;;;;4896577;29;20095;-78
2021/09/21 01:20:02;;;;;;;5.78;3.67;;;12.50;79.90;;;;;;4871939;29;20052;-78
2021/09/21 01:22:28;;;;;;;6.75;3.78;;;12.50;80.00;;;;;;4894752;29;20124;-77
2021/09/21 01:24:54;;;;;;;4.60;3.78;;;12.50;80.00;;;;;;4884168;29;20486;-79
2021/09/21 01:27:19;;;;;;;6.88;3.60;;;12.50;80.10;;;;;;4883150;29;20466;-79
2021/09/21 01:29:47;;;;;;;4.75;3.58;;;12.60;80.20;;;;;;4881224;29;20570;-79
2021/09/21 01:32:13;;;;;;;5.60;3.80;;;12.60;80.20;;;;;;4882422;29;20037;-79
2021/09/21 01:34:38;;;;;;;5.25;4.50;;;12.60;80.20;;;;;;4881639;29;20130;-77
2021/09/21 01:37:06;;;;;;;4.95;4.05;;;12.60;80.30;;;;;;4867688;29;20050;-79
2021/09/21 01:39:32;;;;;;;7.20;3.95;;;12.60;80.40;;;;;;4882355;29;20037;-79
2021/09/21 01:42:00;;;;;;;4.65;3.80;;;12.50;80.50;;;;;;4862788;29;20147;-79
2021/09/21 01:44:25;;;;;;;4.65;4.13;;;12.50;80.60;;;;;;4897332;29;20035;-79
2021/09/21 01:46:51;;;;;;;6.10;3.97;;;12.50;80.80;;;;;;4900181;29;20112;-78
2021/09/21 01:49:18;;;;;;;5.20;4.13;;;12.50;81.00;;;;;;4882265;29;20040;-78
2021/09/21 01:51:56;;;;;;;5.57;4.43;;;12.50;81.00;;;;;;4897491;29;20035;-80
2021/09/21 02:00:01;;;;;;;3.67;3.35;;;12.40;81.50;;;;;;4873296;29;20413;-80
2021/09/21 02:02:26;;;;;;;6.00;3.42;;;12.50;81.50;;;;;;4862143;29;20037;-79
2021/09/21 02:04:52;;;;;;;3.20;2.90;;;12.50;81.60;;;;;;4838630;29;20465;-79
2021/09/21 02:07:18;;;;;;;3.93;3.20;;;12.50;81.50;;;;;;4847420;29;20041;-79
2021/09/21 02:09:43;;;;;;;3.80;3.30;;;12.50;81.60;;;;;;4831695;29;20069;-78
2021/09/21 02:12:09;;;;;;;3.58;2.88;;;12.50;81.60;;;;;;4844146;29;20044;-78
2021/09/21 02:14:35;;;;;;;3.92;3.35;;;12.50;81.70;;;;;;4878510;29;20493;-79
2021/09/21 02:17:00;;;;;;;6.72;3.38;;;12.50;81.70;;;;;;4877173;29;20040;-79
2021/09/21 02:19:26;;;;;;;5.22;4.18;;;12.40;81.70;;;;;;4879198;29;20037;-79
2021/09/21 02:21:52;;;;;;;5.75;3.90;;;12.40;81.90;;;;;;4876984;29;20184;-80
2021/09/21 02:24:24;;;;;;;4.47;3.40;;;12.30;82.00;;;;;;4863098;29;20021;-78
2021/09/21 02:26:51;;;;;;;5.40;3.28;;;12.30;82.30;;;;;;4846412;29;20398;-78
2021/09/21 02:29:18;;;;;;;6.55;3.53;;;12.30;82.40;;;;;;4862705;29;20021;-78
2021/09/21 02:31:43;;;;;;;5.33;3.37;;;12.20;82.70;;;;;;4877595;29;20039;-78
2021/09/21 02:34:09;;;;;;;5.32;3.13;;;12.20;83.00;;;;;;4845679;29;20120;-79
2021/09/21 02:36:40;;;;;;;4.40;3.70;;;12.30;83.10;;;;;;4861597;29;20036;-80
2021/09/21 02:39:07;;;;;;;4.22;3.00;;;12.30;83.20;;;;;;4877158;29;20029;-78
2021/09/21 02:41:33;;;;;;;6.60;4.23;;;12.30;83.20;;;;;;4846437;29;20052;-79
2021/09/21 02:43:59;;;;;;;5.70;3.77;;;12.30;83.30;;;;;;4878827;29;20033;-78
2021/09/21 02:46:25;;;;;;;5.60;3.60;;;12.20;83.50;;;;;;4843415;29;20511;-79
2021/09/21 02:48:51;;;;;;;5.22;4.07;;;12.20;83.70;;;;;;4844854;29;20061;-78
2021/09/21 02:51:17;;;;;;;5.60;3.75;;;12.10;84.10;;;;;;4861550;29;20169;-79
2021/09/21 02:53:42;;;;;;;4.90;3.53;;;12.00;84.70;;;;;;4830827;29;20033;-80
2021/09/21 02:56:08;;;;;;;4.63;3.97;;;11.90;85.00;;;;;;4828617;29;20048;-79
2021/09/21 02:58:34;;;;;;;5.20;3.83;;;11.90;85.30;;;;;;4871998;29;20029;-80
2021/09/21 03:00:59;;;;;;;4.10;3.50;;;11.90;85.80;;;;;;4863915;29;20125;-77
2021/09/21 03:03:30;;;;;;;5.80;3.50;;;11.80;85.70;;;;;;4879315;29;20072;-78
2021/09/21 03:06:00;;;;;;;4.87;3.17;;;11.90;85.80;;;;;;4863484;29;20047;-78
2021/09/21 03:08:29;;;;;;;6.67;3.70;;;12.00;85.80;;;;;;4879059;29;20036;-79
2021/09/21 03:11:17;;;;;;;5.43;3.80;;;12.00;85.70;;;;;;4893778;29;20084;-77
2021/09/21 03:19:08;;;;;;;5.03;3.87;;;12.20;85.70;;;;;;4896275;29;20243;-79
2021/09/21 03:21:34;;;;;;;7.80;6.03;;;12.20;85.60;;;;;;4879850;29;20037;-78
2021/09/21 03:24:00;;;;;;;13.03;10.47;;;12.20;85.70;;;;;;4868252;29;20043;-78
2021/09/21 03:26:25;;;;;;;22.00;15.70;;;12.20;85.60;;;;;;4865311;29;20508;-79
2021/09/21 03:28:51;;;;;;;33.25;23.67;;;12.30;85.70;;;;;;4862423;29;20036;-78
2021/09/21 03:31:18;;;;;;;44.97;32.53;;;12.30;85.70;;;;;;4880302;29;20408;-77
2021/09/21 03:33:43;;;;;;;49.67;36.30;;;12.30;85.60;;;;;;4864129;29;20025;-78
2021/09/21 03:36:09;;;;;;;63.13;43.65;;;12.30;85.60;;;;;;4896079;29;20043;-77
2021/09/21 03:38:35;;;;;;;67.43;46.30;;;12.30;85.60;;;;;;4879339;29;20032;-79
2021/09/21 03:41:00;;;;;;;74.05;51.33;;;12.30;85.60;;;;;;4860671;29;20041;-78
2021/09/21 03:43:26;;;;;;;86.35;61.58;;;12.30;85.50;;;;;;4879670;29;20073;-79
2021/09/21 03:45:52;;;;;;;102.82;70.95;;;12.30;85.50;;;;;;4878612;29;20413;-78
2021/09/21 03:48:18;;;;;;;101.53;68.27;;;12.20;85.60;;;;;;4896627;29;20040;-79
2021/09/21 03:50:43;;;;;;;89.57;59.77;;;12.20;85.90;;;;;;4879857;29;20036;-78
2021/09/21 03:53:09;;;;;;;85.60;57.83;;;12.10;86.10;;;;;;4869761;29;20128;-78
2021/09/21 03:55:35;;;;;;;89.18;60.25;;;12.10;86.20;;;;;;4861185;29;20521;-78
2021/09/21 03:58:00;;;;;;;85.97;57.15;;;12.10;86.30;;;;;;4874175;29;20119;-76
2021/09/21 04:00:26;;;;;;;77.17;50.67;;;12.10;86.40;;;;;;4858946;29;20049;-77
2021/09/21 04:02:52;;;;;;;78.75;51.10;;;12.10;86.50;;;;;;4859658;29;20041;-78
2021/09/21 04:05:17;;;;;;;64.70;43.95;;;12.10;86.70;;;;;;4877815;29;20064;-77
2021/09/21 04:07:49;;;;;;;58.87;41.77;;;12.10;87.00;;;;;;4848834;29;20093;-78
2021/09/21 04:10:14;;;;;;;50.50;35.30;;;12.10;87.00;;;;;;4861469;29;20036;-77
2021/09/21 04:12:40;;;;;;;45.57;30.67;;;12.10;87.10;;;;;;4879968;29;20028;-78
2021/09/21 04:15:07;;;;;;;34.47;26.97;;;12.10;87.10;;;;;;4859833;29;20063;-78
2021/09/21 04:17:32;;;;;;;31.60;24.33;;;12.00;87.10;;;;;;4878330;29;20089;-78
2021/09/21 04:19:58;;;;;;;29.90;22.42;;;12.00;87.20;;;;;;4876856;29;20041;-77
2021/09/21 04:22:24;;;;;;;26.70;20.80;;;11.90;87.40;;;;;;4862563;29;20501;-78
2021/09/21 04:24:50;;;;;;;20.17;15.37;;;11.90;87.60;;;;;;4875714;29;20068;-78
2021/09/21 04:27:16;;;;;;;18.70;14.47;;;11.80;87.80;;;;;;4863098;29;20056;-78
2021/09/21 04:29:41;;;;;;;15.07;11.93;;;11.70;88.10;;;;;;4903556;29;20084;-77
2021/09/21 04:32:07;;;;;;;15.30;11.20;;;11.70;88.30;;;;;;4871702;29;20039;-78
2021/09/21 04:34:33;;;;;;;11.07;9.00;;;11.60;88.60;;;;;;4896628;29;20048;-78
2021/09/21 04:36:59;;;;;;;11.33;9.30;;;11.60;88.90;;;;;;4884099;29;20051;-79
2021/09/21 04:39:26;;;;;;;10.00;7.83;;;11.50;89.10;;;;;;4862432;29;20129;-78
2021/09/21 04:41:53;;;;;;;9.73;7.40;;;11.50;89.30;;;;;;4863910;29;20366;-78
2021/09/21 04:44:19;;;;;;;7.63;6.67;;;11.40;89.40;;;;;;4876802;29;20040;-78
2021/09/21 04:46:50;;;;;;;8.53;6.57;;;11.40;89.60;;;;;;4864040;29;20092;-78
2021/09/21 04:49:17;;;;;;;7.57;5.63;;;11.30;89.80;;;;;;4882597;29;20129;-79
2021/09/21 04:51:43;;;;;;;8.80;5.63;;;11.20;90.10;;;;;;4849874;29;20045;-78
2021/09/21 04:54:09;;;;;;;8.77;5.90;;;11.10;90.20;;;;;;4863942;29;20044;-78
2021/09/21 04:56:34;;;;;;;8.47;5.57;;;10.90;90.30;;;;;;4881972;29;20048;-78
2021/09/21 04:59:01;;;;;;;8.03;5.37;;;10.80;90.60;;;;;;4860522;29;20052;-78
2021/09/21 05:01:27;;;;;;;7.30;5.70;;;10.70;91.00;;;;;;4880923;29;20036;-78
2021/09/21 05:03:52;;;;;;;7.30;6.30;;;10.60;90.90;;;;;;4861825;29;20047;-79
2021/09/21 05:06:18;;;;;;;9.90;5.57;;;10.50;91.20;;;;;;4847107;29;20118;-78
2021/09/21 05:08:43;;;;;;;7.33;6.00;;;10.40;91.30;;;;;;4864594;29;20040;-78
2021/09/21 05:11:10;;;;;;;9.67;6.50;;;10.30;91.50;;;;;;4864597;29;20033;-78
2021/09/21 05:13:36;;;;;;;7.73;6.33;;;10.30;91.80;;;;;;4879234;29;20033;-78
2021/09/21 05:16:01;;;;;;;7.97;5.67;;;10.20;92.00;;;;;;4860599;29;20497;-78
2021/09/21 05:18:27;;;;;;;10.03;6.07;;;10.10;92.00;;;;;;4870726;29;20513;-78
2021/09/21 05:20:53;;;;;;;8.30;5.93;;;10.00;92.20;;;;;;4865226;29;20036;-79
2021/09/21 05:23:19;;;;;;;8.80;6.57;;;10.00;92.30;;;;;;4877533;29;20124;-79
2021/09/21 05:25:44;;;;;;;10.00;6.03;;;9.90;92.40;;;;;;4861272;29;20041;-79
2021/09/21 05:28:10;;;;;;;8.10;6.10;;;9.90;92.70;;;;;;4857454;29;20064;-78
2021/09/21 05:30:36;;;;;;;9.47;6.23;;;9.90;92.80;;;;;;4865374;29;20065;-78
2021/09/21 05:33:01;;;;;;;7.80;6.07;;;9.90;92.70;;;;;;4879834;29;20088;-78
2021/09/21 05:35:27;;;;;;;7.13;5.90;;;9.80;92.80;;;;;;4863758;29;20133;-78
2021/09/21 05:37:53;;;;;;;8.60;6.27;;;9.90;93.00;;;;;;4878438;29;20033;-78
2021/09/21 05:40:18;;;;;;;8.03;5.47;;;9.90;93.10;;;;;;4855673;29;20068;-78
2021/09/21 05:42:45;;;;;;;7.73;6.10;;;10.20;93.30;;;;;;4878263;29;20073;-78
2021/09/21 05:45:11;;;;;;;9.63;5.77;;;10.70;93.20;;;;;;4854068;29;20045;-79
2021/09/21 05:47:41;;;;;;;8.87;5.40;;;11.20;92.50;;;;;;4861905;29;20077;-78
2021/09/21 05:50:08;;;;;;;8.40;6.07;;;11.80;91.50;;;;;;4888527;29;20040;-78
2021/09/21 05:52:34;;;;;;;7.50;5.40;;;12.30;90.40;;;;;;4862372;29;20037;-78
2021/09/21 05:55:00;;;;;;;7.60;4.60;;;12.80;88.70;;;;;;4863593;29;20036;-78
2021/09/21 05:57:25;;;;;;;6.30;4.88;;;13.40;86.70;;;;;;4897139;29;20032;-78
2021/09/21 05:59:51;;;;;;;7.18;4.72;;;13.90;84.30;;;;;;4863494;29;20482;-78
2021/09/21 06:02:16;;;;;;;6.95;5.03;;;14.30;82.20;;;;;;4867585;29;20052;-79
2021/09/21 06:04:42;;;;;;;6.93;4.82;;;14.70;80.20;;;;;;4853491;29;20145;-79
2021/09/21 06:07:08;;;;;;;7.15;4.32;;;15.20;78.40;;;;;;4854819;29;20478;-78
2021/09/21 06:09:34;;;;;;;6.20;4.38;;;15.70;76.40;;;;;;4863755;29;20044;-78
2021/09/21 06:11:59;;;;;;;8.10;4.20;;;16.20;74.70;;;;;;4868930;29;21597;-79
2021/09/21 06:14:25;;;;;;;8.40;4.00;;;16.50;72.80;;;;;;4864679;29;20127;-79
2021/09/21 06:16:51;;;;;;;5.45;4.22;;;16.70;70.40;;;;;;4867338;29;20068;-79
2021/09/21 06:19:17;;;;;;;6.95;4.15;;;16.90;69.70;;;;;;4852981;29;20057;-79
2021/09/21 06:21:43;;;;;;;7.88;3.75;;;16.70;69.10;;;;;;4864354;29;20131;-79
2021/09/21 06:24:08;;;;;;;6.00;3.70;;;16.60;69.30;;;;;;4865070;29;20041;-79
2021/09/21 06:26:34;;;;;;;6.45;3.88;;;16.70;69.20;;;;;;4848012;29;20048;-79
2021/09/21 06:29:00;;;;;;;5.47;4.13;;;16.80;69.00;;;;;;4852737;29;20044;-79
2021/09/21 06:31:26;;;;;;;6.68;3.90;;;16.70;68.20;;;;;;4842098;29;20059;-79
2021/09/21 06:33:52;;;;;;;6.95;4.50;;;16.50;68.60;;;;;;4883818;29;20717;-79
2021/09/21 06:36:18;;;;;;;7.07;3.90;;;16.10;69.20;;;;;;4883495;29;20036;-80
2021/09/21 06:38:44;;;;;;;7.78;4.78;;;15.90;69.90;;;;;;4872847;29;20437;-79
2021/09/21 06:41:10;;;;;;;5.30;4.00;;;15.50;70.80;;;;;;4863688;29;20107;-79
2021/09/21 06:43:35;;;;;;;8.98;4.30;;;15.50;71.30;;;;;;4864853;29;20028;-79
2021/09/21 06:46:01;;;;;;;6.28;3.90;;;15.90;71.20;;;;;;4881199;29;20036;-79
2021/09/21 06:48:27;;;;;;;7.10;3.78;;;16.70;70.30;;;;;;4850554;29;20586;-79
2021/09/21 06:50:53;;;;;;;10.00;4.68;;;17.40;67.80;;;;;;4882576;29;20699;-79
2021/09/21 06:53:19;;;;;;;7.32;4.47;;;17.60;66.40;;;;;;4863009;29;20072;-79
2021/09/21 06:55:45;;;;;;;6.22;4.20;;;18.00;66.10;;;;;;4868326;29;20451;-79
2021/09/21 06:58:11;;;;;;;7.65;4.40;;;18.50;64.70;;;;;;4882115;29;20115;-79
2021/09/21 07:00:38;;;;;;;6.28;4.68;;;19.00;63.60;;;;;;4852736;29;20520;-79
2021/09/21 07:03:08;;;;;;;6.32;4.32;;;19.20;61.80;;;;;;4866411;29;20041;-79
2021/09/21 07:05:34;;;;;;;6.25;3.85;;;18.90;62.60;;;;;;4849753;29;20044;-79
2021/09/21 07:07:59;;;;;;;6.05;4.30;;;19.20;62.40;;;;;;4848528;29;20036;-79
2021/09/21 07:10:25;;;;;;;8.98;4.40;;;19.70;61.50;;;;;;4864203;29;20065;-79
2021/09/21 07:12:51;;;;;;;6.38;4.70;;;20.30;60.30;;;;;;4845408;29;20575;-79
2021/09/21 07:15:27;;;;;;;7.45;4.20;;;20.80;58.80;;;;;;4828684;29;20037;-79
2021/09/21 07:17:53;;;;;;;5.80;4.10;;;21.20;57.80;;;;;;4814225;29;20025;-78
2021/09/21 07:20:24;;;;;;;7.25;4.05;;;21.20;56.00;;;;;;4845825;29;20065;-80
2021/09/21 07:22:51;;;;;;;8.05;4.50;;;21.30;55.20;;;;;;4858685;29;20108;-79
2021/09/21 07:25:20;;;;;;;7.47;4.32;;;20.90;55.80;;;;;;4845002;29;20448;-79
2021/09/21 07:27:47;;;;;;;6.43;4.20;;;20.70;56.60;;;;;;4845360;29;20161;-80
2021/09/21 07:30:13;;;;;;;9.40;4.35;;;20.40;56.70;;;;;;4839257;29;20040;-79
2021/09/21 07:32:39;;;;;;;7.53;4.85;;;20.40;57.10;;;;;;4856454;29;20175;-79
2021/09/21 07:35:06;;;;;;;8.15;4.68;;;20.20;56.50;;;;;;4823485;29;20069;-80
2021/09/21 07:37:32;;;;;;;5.88;4.22;;;20.10;57.30;;;;;;4854725;29;20025;-80
2021/09/21 07:39:57;;;;;;;5.65;4.35;;;20.70;57.40;;;;;;4849304;29;20033;-78
2021/09/21 07:42:23;;;;;;;8.48;4.65;;;21.40;56.50;;;;;;4837500;29;20036;-79
2021/09/21 07:44:49;;;;;;;5.93;4.18;;;22.10;54.00;;;;;;4876528;29;20037;-79
2021/09/21 07:47:15;;;;;;;5.13;4.28;;;22.60;52.50;;;;;;4860410;29;20029;-78
2021/09/21 07:49:41;;;;;;;7.70;4.68;;;23.00;52.10;;;;;;4843063;29;20037;-80
2021/09/21 07:52:07;;;;;;;5.40;4.32;;;23.10;50.30;;;;;;4866146;29;20040;-79
2021/09/21 07:54:32;;;;;;;6.15;4.25;;;23.00;50.40;;;;;;4844518;29;20080;-79
2021/09/21 07:56:58;;;;;;;6.07;4.50;;;23.20;50.40;;;;;;4859468;29;20029;-79
2021/09/21 07:59:24;;;;;;;7.60;4.55;;;23.70;50.00;;;;;;4859174;29;20053;-78
2021/09/21 08:01:49;;;;;;;5.88;4.38;;;23.70;47.80;;;;;;4861909;29;20049;-79
2021/09/21 08:04:15;;;;;;;9.95;4.55;;;23.80;48.40;;;;;;4817330;29;20034;-79
2021/09/21 08:06:41;;;;;;;7.80;4.50;;;23.70;48.00;;;;;;4844543;29;20414;-79
2021/09/21 08:09:06;;;;;;;5.65;4.25;;;23.80;47.50;;;;;;4865518;29;20478;-79
2021/09/21 08:11:32;;;;;;;5.43;3.35;;;24.00;48.00;;;;;;4848693;29;20059;-79
2021/09/21 08:14:03;;;;;;;6.95;3.35;;;24.40;47.00;;;;;;4865976;29;20036;-79
2021/09/21 08:16:29;;;;;;;5.30;3.45;;;24.50;43.80;;;;;;4883571;29;20037;-79
2021/09/21 08:18:54;;;;;;;6.80;3.20;;;24.60;45.40;;;;;;4866685;29;20485;-79
2021/09/21 08:21:20;;;;;;;5.47;3.42;;;24.90;43.40;;;;;;4831035;29;20025;-79
2021/09/21 08:23:45;;;;;;;5.80;3.20;;;24.60;42.90;;;;;;4871250;29;20071;-79
2021/09/21 08:26:11;;;;;;;4.82;3.50;;;24.30;43.90;;;;;;4900775;29;20037;-79
2021/09/21 08:28:37;;;;;;;5.70;3.92;;;24.30;44.60;;;;;;4898289;29;20021;-79
2021/09/21 08:31:02;;;;;;;7.15;3.80;;;24.00;44.60;;;;;;4886668;29;20056;-79
2021/09/21 08:33:28;;;;;;;5.35;3.47;;;23.90;44.20;;;;;;4871998;29;20025;-79
2021/09/21 08:35:54;;;;;;;5.97;3.17;;;24.00;43.70;;;;;;4883579;29;20029;-79
2021/09/21 08:38:19;;;;;;;6.22;2.78;;;24.00;42.20;;;;;;4885741;29;20041;-80
2021/09/21 08:40:45;;;;;;;4.40;2.38;;;24.20;41.70;;;;;;4884774;29;20081;-80
2021/09/21 08:43:11;;;;;;;4.93;2.53;;;24.10;40.20;;;;;;4887862;29;20134;-80
2021/09/21 08:45:36;;;;;;;3.92;1.92;;;23.80;40.80;;;;;;4880616;29;20044;-79
2021/09/21 08:48:03;;;;;;;4.38;1.80;;;24.00;40.00;;;;;;4866775;29;20030;-78
2021/09/21 08:50:29;;;;;;;4.68;2.20;;;24.00;40.10;;;;;;4863382;29;20033;-78
2021/09/21 08:52:55;;;;;;;4.93;2.40;;;24.00;40.30;;;;;;4854734;29;20029;-78
2021/09/21 08:55:20;;;;;;;3.95;2.13;;;24.00;41.30;;;;;;4872505;29;20124;-78
2021/09/21 08:57:46;;;;;;;3.55;1.77;;;24.40;41.40;;;;;;4870326;29;20041;-79
2021/09/21 09:00:40;;;;;;;4.57;1.80;;;24.70;40.10;;;;;;4875610;29;20421;-78
2021/09/21 09:03:09;;;;;;;2.72;1.40;;;24.60;38.90;;;;;;4850980;29;20048;-79
2021/09/21 09:05:56;;;;;;;3.38;1.35;;;24.20;38.10;;;;;;4870839;29;20104;-80
2021/09/21 09:08:34;;;;;;;3.20;1.58;;;24.20;37.80;;;;;;4884255;29;20033;-78
2021/09/21 09:11:20;;;;;;;3.05;1.92;;;23.80;38.70;;;;;;4880649;29;20115;-79
2021/09/21 09:13:53;;;;;;;2.45;1.33;;;23.50;39.70;;;;;;4866439;29;20029;-79
2021/09/21 09:16:21;;;;;;;2.42;0.90;;;23.60;38.40;;;;;;4847298;29;20033;-78
2021/09/21 09:18:49;;;;;;;2.20;1.10;;;23.10;37.30;;;;;;4858543;29;20029;-76
2021/09/21 09:21:17;;;;;;;1.90;1.10;;;22.70;37.90;;;;;;4849150;29;20026;-78
2021/09/21 09:23:47;;;;;;;2.30;1.13;;;22.50;38.70;;;;;;4853658;29;20049;-79
2021/09/21 09:26:17;;;;;;;2.67;1.20;;;22.80;38.60;;;;;;4833274;29;20100;-78
2021/09/21 09:28:42;;;;;;;2.47;1.23;;;23.00;38.70;;;;;;4863449;29;20473;-79
2021/09/21 09:31:08;;;;;;;3.17;1.73;;;23.10;38.70;;;;;;4858960;29;20118;-78
2021/09/21 09:33:36;;;;;;;1.77;1.00;;;22.90;38.60;;;;;;4843159;29;20398;-77
2021/09/21 09:36:02;;;;;;;2.55;1.10;;;22.80;39.10;;;;;;4849018;29;20033;-79
2021/09/21 09:38:27;;;;;;;1.73;0.88;;;22.90;37.50;;;;;;4849031;29;20080;-78
2021/09/21 09:40:55;;;;;;;4.10;1.00;;;22.80;37.90;;;;;;4879182;29;20398;-79
2021/09/21 09:43:23;;;;;;;3.63;1.67;;;23.00;38.10;;;;;;4877060;29;20034;-80
2021/09/21 09:45:51;;;;;;;2.25;1.30;;;23.10;38.00;;;;;;4869192;29;20033;-77
2021/09/21 09:48:19;;;;;;;2.58;1.15;;;22.90;39.00;;;;;;4867178;29;20033;-78
2021/09/21 09:50:47;;;;;;;2.03;0.82;;;22.60;38.50;;;;;;4867964;29;20363;-79
2021/09/21 09:53:13;;;;;;;3.97;0.93;;;22.70;39.60;;;;;;4848955;29;20052;-78
2021/09/21 09:55:40;;;;;;;1.38;0.60;;;22.80;37.70;;;;;;4856527;29;20743;-78
2021/09/21 09:58:07;;;;;;;1.30;0.70;;;22.50;37.50;;;;;;4882558;29;20125;-78
2021/09/21 10:00:35;;;;;;;2.08;0.68;;;22.80;37.40;;;;;;4861378;29;20122;-79
2021/09/21 10:03:02;;;;;;;1.20;0.70;;;22.70;36.80;;;;;;4846173;29;20030;-79
2021/09/21 10:05:34;;;;;;;3.22;0.90;;;22.60;37.80;;;;;;4848554;29;20132;-79
2021/09/21 10:08:00;;;;;;;1.42;0.82;;;22.40;38.30;;;;;;4858377;29;20060;-79
2021/09/21 10:10:28;;;;;;;3.17;1.42;;;22.10;38.50;;;;;;4846880;29;20045;-79
2021/09/21 10:12:55;;;;;;;1.73;0.70;;;21.80;38.70;;;;;;4859294;29;20034;-78
2021/09/21 10:15:21;;;;;;;3.15;0.80;;;21.50;39.00;;;;;;4860487;29;20077;-78
2021/09/21 10:17:59;;;;;;;3.50;0.90;;;21.50;38.80;;;;;;4892058;29;20108;-79
2021/09/21 10:20:37;;;;;;;2.92;0.80;;;21.30;39.40;;;;;;4873152;29;20037;-79
2021/09/21 10:23:08;;;;;;;3.58;1.05;;;21.60;39.50;;;;;;4876277;29;20040;-79
2021/09/21 10:25:36;;;;;;;1.10;0.60;;;21.60;38.90;;;;;;4867693;29;20045;-79
2021/09/21 10:28:14;;;;;;;1.92;0.90;;;21.90;39.60;;;;;;4876690;29;20025;-79
2021/09/21 10:30:55;;;;;;;3.97;0.73;;;22.60;39.10;;;;;;4874753;29;20037;-80
2021/09/21 10:33:28;;;;;;;2.95;0.80;;;23.10;37.80;;;;;;4872760;29;20041;-78
2021/09/21 10:35:55;;;;;;;3.17;0.90;;;23.50;36.80;;;;;;4878610;29;20041;-78
2021/09/21 10:38:21;;;;;;;3.45;0.80;;;23.80;36.40;;;;;;4896773;29;20588;-79
2021/09/21 10:40:50;;;;;;;1.58;0.90;;;23.70;35.70;;;;;;4853834;29;20041;-79
2021/09/21 10:43:27;;;;;;;1.67;0.70;;;23.50;36.00;;;;;;4902375;29;20116;-79
2021/09/21 10:46:10;;;;;;;2.55;0.80;;;22.80;36.30;;;;;;4885120;29;20029;-78
2021/09/21 10:48:39;;;;;;;1.15;0.80;;;22.90;37.10;;;;;;4883464;29;20037;-78
2021/09/21 10:51:06;;;;;;;2.25;0.82;;;23.10;36.90;;;;;;4886761;29;20025;-79
2021/09/21 10:53:32;;;;;;;1.95;0.77;;;23.20;37.00;;;;;;4854310;29;20147;-78
2021/09/21 10:56:02;;;;;;;2.50;0.68;;;23.40;36.60;;;;;;4855985;29;20037;-79
2021/09/21 10:58:29;;;;;;;2.30;0.80;;;23.30;36.70;;;;;;4879788;29;20034;-79
2021/09/21 11:00:54;;;;;;;3.22;0.80;;;23.40;37.00;;;;;;4915635;29;20096;-79
2021/09/21 11:03:27;;;;;;;1.92;0.70;;;23.30;37.00;;;;;;4889900;29;20048;-78
2021/09/21 11:05:59;;;;;;;1.58;0.93;;;23.50;37.00;;;;;;4899998;29;20036;-78
2021/09/21 11:08:35;;;;;;;;;;;23.40;36.60;;;;;;4907002;29;20064;-79
2021/09/21 11:11:04;;;;;;;1.35;0.70;;;23.60;36.90;;;;;;4872793;29;19923;-79
2021/09/21 11:13:40;;;;;;;1.23;0.80;;;23.70;37.00;;;;;;4885935;29;20028;-79
2021/09/21 11:16:09;;;;;;;1.83;0.93;;;23.40;36.70;;;;;;4868398;29;20041;-79
2021/09/21 11:18:36;;;;;;;1.60;0.90;;;23.20;37.00;;;;;;4902707;29;20052;-78
2021/09/21 11:21:05;;;;;;;2.25;0.93;;;23.30;37.80;;;;;;4862317;29;20035;-78
2021/09/21 11:23:35;;;;;;;1.55;0.68;;;23.60;37.60;;;;;;4894830;29;20033;-79
2021/09/21 11:26:06;;;;;;;1.50;0.80;;;23.70;36.70;;;;;;4885028;29;20025;-78
2021/09/21 11:28:38;;;;;;;2.45;0.80;;;23.70;36.70;;;;;;4877170;29;20429;-78
2021/09/21 11:31:06;;;;;;;1.35;0.70;;;23.60;37.60;;;;;;4877575;29;20100;-79
2021/09/21 11:33:35;;;;;;;1.55;0.70;;;23.80;37.10;;;;;;4894622;29;20029;-78
2021/09/21 11:36:07;;;;;;;2.17;0.98;;;24.30;37.30;;;;;;4879894;29;20055;-78
2021/09/21 11:38:39;;;;;;;3.85;1.10;;;24.50;36.00;;;;;;4894260;29;20049;-79
2021/09/21 11:41:06;;;;;;;2.53;1.00;;;23.60;36.70;;;;;;4881902;29;20548;-78
2021/09/21 11:43:32;;;;;;;4.03;0.90;;;23.00;38.40;;;;;;4884249;29;20039;-78
2021/09/21 11:45:58;;;;;;;4.00;0.90;;;22.90;39.70;;;;;;4879762;29;20037;-79
2021/09/21 11:48:24;;;;;;;1.42;0.90;;;22.70;38.20;;;;;;4883753;29;20132;-78
2021/09/21 11:50:51;;;;;;;1.70;0.90;;;22.60;38.80;;;;;;4867554;29;20064;-78
2021/09/21 11:53:19;;;;;;;2.08;0.80;;;22.50;39.50;;;;;;4881738;29;20035;-79
2021/09/21 11:55:49;;;;;;;1.75;1.10;;;22.50;40.00;;;;;;4882254;29;20036;-79
2021/09/21 11:58:16;;;;;;;1.70;0.90;;;22.90;39.40;;;;;;4897857;29;20056;-79
2021/09/21 12:00:48;;;;;;;2.08;0.70;;;23.20;38.10;;;;;;4891679;29;20041;-80
2021/09/21 12:03:15;;;;;;;;;;;23.30;37.90;;;;;;4897806;29;20043;-79
2021/09/21 12:05:44;;;;;;;2.80;0.90;;;23.60;38.50;;;;;;4868127;29;20295;-77
2021/09/21 12:08:17;;;;;;;1.92;0.70;;;23.80;38.30;;;;;;4863809;29;20037;-79
2021/09/21 12:10:44;;;;;;;;;;;24.10;38.40;;;;;;4878279;29;20028;-78
2021/09/21 12:13:15;;;;;;;2.28;0.90;;;24.00;37.10;;;;;;4882970;29;20368;-78
2021/09/21 12:15:44;;;;;;;1.55;0.80;;;23.50;37.60;;;;;;4892504;29;20100;-78
2021/09/21 12:18:13;;;;;;;2.33;0.68;;;23.20;37.60;;;;;;4891389;29;20028;-79
2021/09/21 12:20:41;;;;;;;2.30;0.95;;;23.20;38.20;;;;;;4894249;29;20033;-79
2021/09/21 12:23:09;;;;;;;2.38;0.70;;;23.20;38.40;;;;;;4872389;29;20498;-80
2021/09/21 12:25:39;;;;;;;1.33;0.70;;;23.00;39.30;;;;;;4899285;29;20043;-79
2021/09/21 12:28:08;;;;;;;2.72;0.93;;;23.20;40.10;;;;;;4881230;29;20031;-80
2021/09/21 12:30:45;;;;;;;1.80;0.70;;;22.70;38.80;;;;;;4880490;29;20477;-79
2021/09/21 12:33:13;;;;;;;1.75;0.70;;;22.60;39.00;;;;;;4874411;29;20048;-79
2021/09/21 12:35:50;;;;;;;1.50;0.80;;;22.80;39.10;;;;;;4903602;29;20033;-78
2021/09/21 12:38:20;;;;;;;1.80;0.60;;;22.80;39.40;;;;;;4885425;29;20147;-79
2021/09/21 12:41:01;;;;;;;1.13;0.70;;;22.60;40.80;;;;;;4884025;29;20068;-80
2021/09/21 12:43:43;;;;;;;2.60;0.55;;;22.70;39.80;;;;;;4882037;29;20037;-80
2021/09/21 12:46:18;;;;;;;3.22;0.68;;;22.60;39.50;;;;;;4862706;29;20041;-80
2021/09/21 12:48:55;;;;;;;1.33;0.70;;;22.40;39.80;;;;;;4850209;29;20401;-79
2021/09/21 12:51:31;;;;;;;2.65;0.75;;;22.20;40.10;;;;;;4900410;29;20097;-79
2021/09/21 12:54:02;;;;;;;4.90;0.60;;;22.20;40.70;;;;;;4884009;29;20056;-80
2021/09/21 12:56:31;;;;;;;1.55;0.57;;;22.40;40.80;;;;;;4884334;29;20040;-80
2021/09/21 12:59:09;;;;;;;3.05;0.50;;;22.60;41.30;;;;;;4883691;29;20608;-80